TAF Text Data
IDs:
Format:
Raw Decoded Include METAR

Data at: 1853 UTC 23 Jan 2019

KGUP 231753Z AUTO 21007KT 10SM CLR M01/M11 A3027 RMK AO2 SLP292 T10061106 10000 21094 50003

KGUP 231728Z 2318/2418 24008KT P6SM SKC
  FM232100 25011KT P6SM FEW250
  FM240100 VRB03KT P6SM SKC